Portada
METAR-TAF:

METAR-TAF

Aeroports :

Langkawi, Malàisia

latitud: 06-20N, longitud: 099-44E, altitud: 8 m

Observació

L'informe es va fer fa 36 minuts, a les 14:00 UTC
Vent 9 kt del Nord/Nord-Est, variant entre Nord/Nord-Oest i Est/Nord-Est
Temperatura 29°C
Humitat 74%
Pressió 1010 hPa
Visibilitat 10 km o més
Escasses núvols a una alçada de 2600 ft

METAR: WMKL 261400Z 02009KT 330V070 9999 FEW026 29/24 Q1010

Hora: 22:36 (14:36 UTC)

Pronòstic

L'informe es va fer fa 3 hores i 36 minuts, a les 11:00 UTC
Pronòstic vàlid del 26 a les 12 UTC al 27 a les 12 UTC
Vent 6 kt del Nord/Nord-Est
Visibilitat 10 km o més
Escasses núvols a una alçada de 2600 ft
Evolucionant progressivament
l' 27 a les 02 UTC al 27 a les 04 UTC
Vent 8 kt del Nord-Est
Escasses núvols a una alçada de 2000 ft

TAF: WMKL 261100Z 2612/2712 03006KT 9999 FEW026 BECMG 2702/2704 04008KT FEW020

Observacions i pronòstics meteorològics de més de 4000 aeroports (METAR i TAF).

Les estacions disponibles són els punts grocs i vermells al mapa.

Posi el ratolí al punt desitjat per veure el nom de l'estació.

Feu clic per veure les observacions i els pronòstics meteorològics.

Per canviar el mapa: feu clic els botons verds amb una creu de color negre per apropar; al botó verd amb un guió per allunyar la imatge; o en les fletxes verdes per a mapes adjacents.


METAR-TAF: